sensor_id;sensor_type;location;lat;lon;timestamp;P1;durP1;ratioP1;P2;durP2;ratioP2
68985;SDS011;56035;37.534;-122.308;2023-10-19T00:01:13;5.97;;;1.60;;
68985;SDS011;56035;37.534;-122.308;2023-10-19T00:03:43;5.78;;;1.77;;
68985;SDS011;56035;37.534;-122.308;2023-10-19T00:08:37;9.15;;;1.90;;
68985;SDS011;56035;37.534;-122.308;2023-10-19T00:11:09;3.35;;;1.75;;
68985;SDS011;56035;37.534;-122.308;2023-10-19T00:13:47;3.83;;;1.75;;
68985;SDS011;56035;37.534;-122.308;2023-10-19T00:16:19;5.88;;;2.08;;
68985;SDS011;56035;37.534;-122.308;2023-10-19T00:18:51;3.13;;;1.50;;
68985;SDS011;56035;37.534;-122.308;2023-10-19T00:21:18;4.63;;;2.17;;
68985;SDS011;56035;37.534;-122.308;2023-10-19T00:23:45;3.75;;;1.60;;
68985;SDS011;56035;37.534;-122.308;2023-10-19T00:26:17;3.47;;;1.90;;
68985;SDS011;56035;37.534;-122.308;2023-10-19T00:28:45;3.95;;;1.80;;
68985;SDS011;56035;37.534;-122.308;2023-10-19T00:31:14;8.15;;;1.90;;
68985;SDS011;56035;37.534;-122.308;2023-10-19T00:36:10;3.78;;;1.80;;
68985;SDS011;56035;37.534;-122.308;2023-10-19T00:38:40;3.85;;;1.70;;
68985;SDS011;56035;37.534;-122.308;2023-10-19T00:41:07;3.75;;;1.70;;
68985;SDS011;56035;37.534;-122.308;2023-10-19T00:43:39;6.68;;;2.10;;
68985;SDS011;56035;37.534;-122.308;2023-10-19T00:46:09;4.50;;;2.10;;
68985;SDS011;56035;37.534;-122.308;2023-10-19T00:48:52;5.50;;;2.20;;
68985;SDS011;56035;37.534;-122.308;2023-10-19T00:51:21;5.25;;;2.40;;
68985;SDS011;56035;37.534;-122.308;2023-10-19T00:54:13;5.35;;;2.40;;
68985;SDS011;56035;37.534;-122.308;2023-10-19T00:56:49;6.68;;;2.47;;
68985;SDS011;56035;37.534;-122.308;2023-10-19T00:59:21;4.45;;;2.42;;
68985;SDS011;56035;37.534;-122.308;2023-10-19T01:01:55;5.45;;;2.78;;
68985;SDS011;56035;37.534;-122.308;2023-10-19T01:04:42;5.07;;;2.80;;
68985;SDS011;56035;37.534;-122.308;2023-10-19T01:07:10;8.88;;;2.60;;
68985;SDS011;56035;37.534;-122.308;2023-10-19T01:09:51;8.20;;;3.17;;
68985;SDS011;56035;37.534;-122.308;2023-10-19T01:12:24;8.75;;;2.85;;
68985;SDS011;56035;37.534;-122.308;2023-10-19T01:15:02;9.27;;;2.70;;
68985;SDS011;56035;37.534;-122.308;2023-10-19T01:17:49;10.93;;;3.13;;
68985;SDS011;56035;37.534;-122.308;2023-10-19T01:20:20;7.30;;;2.25;;
68985;SDS011;56035;37.534;-122.308;2023-10-19T01:25:41;4.53;;;2.10;;
68985;SDS011;56035;37.534;-122.308;2023-10-19T01:28:24;6.65;;;2.17;;
68985;SDS011;56035;37.534;-122.308;2023-10-19T01:31:10;5.10;;;2.05;;
68985;SDS011;56035;37.534;-122.308;2023-10-19T01:33:54;6.68;;;1.98;;
68985;SDS011;56035;37.534;-122.308;2023-10-19T01:36:26;7.88;;;2.35;;
68985;SDS011;56035;37.534;-122.308;2023-10-19T01:38:56;11.18;;;2.50;;
68985;SDS011;56035;37.534;-122.308;2023-10-19T01:41:26;26.38;;;3.28;;
68985;SDS011;56035;37.534;-122.308;2023-10-19T01:43:56;9.25;;;2.80;;
68985;SDS011;56035;37.534;-122.308;2023-10-19T01:46:29;7.78;;;3.28;;
68985;SDS011;56035;37.534;-122.308;2023-10-19T01:48:59;9.13;;;2.40;;
68985;SDS011;56035;37.534;-122.308;2023-10-19T01:51:28;7.85;;;2.80;;
68985;SDS011;56035;37.534;-122.308;2023-10-19T01:53:58;7.50;;;2.75;;
68985;SDS011;56035;37.534;-122.308;2023-10-19T01:56:28;6.95;;;2.53;;
68985;SDS011;56035;37.534;-122.308;2023-10-19T01:58:54;8.70;;;3.25;;
68985;SDS011;56035;37.534;-122.308;2023-10-19T02:01:22;7.85;;;2.83;;
68985;SDS011;56035;37.534;-122.308;2023-10-19T02:03:52;6.07;;;2.78;;
68985;SDS011;56035;37.534;-122.308;2023-10-19T02:06:20;9.48;;;3.22;;
68985;SDS011;56035;37.534;-122.308;2023-10-19T02:08:52;9.05;;;2.50;;
68985;SDS011;56035;37.534;-122.308;2023-10-19T02:11:34;10.75;;;2.65;;
68985;SDS011;56035;37.534;-122.308;2023-10-19T02:14:03;8.82;;;2.83;;
68985;SDS011;56035;37.534;-122.308;2023-10-19T02:16:39;11.15;;;3.17;;
68985;SDS011;56035;37.534;-122.308;2023-10-19T02:19:09;11.65;;;2.75;;
68985;SDS011;56035;37.534;-122.308;2023-10-19T02:21:36;6.70;;;2.70;;
68985;SDS011;56035;37.534;-122.308;2023-10-19T02:24:09;6.45;;;3.00;;
68985;SDS011;56035;37.534;-122.308;2023-10-19T02:26:42;10.82;;;3.20;;
68985;SDS011;56035;37.534;-122.308;2023-10-19T02:29:10;6.50;;;2.70;;
68985;SDS011;56035;37.534;-122.308;2023-10-19T02:31:39;6.45;;;2.60;;
68985;SDS011;56035;37.534;-122.308;2023-10-19T02:34:07;6.75;;;2.65;;
68985;SDS011;56035;37.534;-122.308;2023-10-19T02:36:38;6.40;;;2.60;;
68985;SDS011;56035;37.534;-122.308;2023-10-19T02:39:05;5.35;;;2.72;;
68985;SDS011;56035;37.534;-122.308;2023-10-19T02:41:36;5.80;;;2.33;;
68985;SDS011;56035;37.534;-122.308;2023-10-19T02:44:11;6.85;;;2.58;;
68985;SDS011;56035;37.534;-122.308;2023-10-19T02:46:44;5.80;;;2.15;;
68985;SDS011;56035;37.534;-122.308;2023-10-19T02:49:13;6.65;;;2.17;;
68985;SDS011;56035;37.534;-122.308;2023-10-19T02:51:44;6.85;;;2.72;;
68985;SDS011;56035;37.534;-122.308;2023-10-19T02:54:14;4.97;;;2.35;;
68985;SDS011;56035;37.534;-122.308;2023-10-19T02:56:45;6.55;;;2.70;;
68985;SDS011;56035;37.534;-122.308;2023-10-19T02:59:17;8.80;;;2.85;;
68985;SDS011;56035;37.534;-122.308;2023-10-19T03:01:57;6.78;;;2.22;;
68985;SDS011;56035;37.534;-122.308;2023-10-19T03:04:39;4.60;;;1.90;;
68985;SDS011;56035;37.534;-122.308;2023-10-19T03:07:07;6.88;;;2.42;;
68985;SDS011;56035;37.534;-122.308;2023-10-19T03:09:33;7.00;;;2.40;;
68985;SDS011;56035;37.534;-122.308;2023-10-19T03:12:13;7.00;;;2.85;;
68985;SDS011;56035;37.534;-122.308;2023-10-19T03:14:40;7.35;;;2.60;;
68985;SDS011;56035;37.534;-122.308;2023-10-19T03:17:12;5.80;;;2.35;;
68985;SDS011;56035;37.534;-122.308;2023-10-19T03:22:05;6.78;;;2.30;;
68985;SDS011;56035;37.534;-122.308;2023-10-19T03:24:36;6.07;;;2.33;;
68985;SDS011;56035;37.534;-122.308;2023-10-19T03:27:13;6.05;;;2.35;;
68985;SDS011;56035;37.534;-122.308;2023-10-19T03:29:47;3.95;;;2.45;;
68985;SDS011;56035;37.534;-122.308;2023-10-19T03:32:19;5.72;;;2.72;;
68985;SDS011;56035;37.534;-122.308;2023-10-19T03:34:57;4.25;;;2.17;;
68985;SDS011;56035;37.534;-122.308;2023-10-19T03:37:29;5.10;;;2.30;;
68985;SDS011;56035;37.534;-122.308;2023-10-19T03:39:56;5.78;;;2.55;;
68985;SDS011;56035;37.534;-122.308;2023-10-19T03:42:22;5.95;;;2.42;;
68985;SDS011;56035;37.534;-122.308;2023-10-19T03:44:55;6.35;;;2.03;;
68985;SDS011;56035;37.534;-122.308;2023-10-19T03:47:22;5.43;;;2.17;;
68985;SDS011;56035;37.534;-122.308;2023-10-19T03:50:00;6.07;;;2.40;;
68985;SDS011;56035;37.534;-122.308;2023-10-19T03:52:31;3.17;;;2.05;;
68985;SDS011;56035;37.534;-122.308;2023-10-19T03:55:20;5.22;;;2.15;;
68985;SDS011;56035;37.534;-122.308;2023-10-19T03:57:48;5.30;;;2.30;;
68985;SDS011;56035;37.534;-122.308;2023-10-19T04:00:20;5.22;;;1.92;;
68985;SDS011;56035;37.534;-122.308;2023-10-19T04:02:52;7.10;;;2.20;;
68985;SDS011;56035;37.534;-122.308;2023-10-19T04:05:20;6.53;;;2.10;;
68985;SDS011;56035;37.534;-122.308;2023-10-19T04:07:51;4.45;;;2.22;;
68985;SDS011;56035;37.534;-122.308;2023-10-19T04:10:22;4.82;;;2.22;;
68985;SDS011;56035;37.534;-122.308;2023-10-19T04:12:55;4.10;;;2.17;;
68985;SDS011;56035;37.534;-122.308;2023-10-19T04:15:25;4.30;;;2.20;;
68985;SDS011;56035;37.534;-122.308;2023-10-19T04:17:54;5.50;;;2.33;;
68985;SDS011;56035;37.534;-122.308;2023-10-19T04:20:24;4.83;;;2.30;;
68985;SDS011;56035;37.534;-122.308;2023-10-19T04:22:50;8.57;;;2.38;;
68985;SDS011;56035;37.534;-122.308;2023-10-19T04:25:17;5.35;;;2.47;;
68985;SDS011;56035;37.534;-122.308;2023-10-19T04:27:44;4.55;;;2.05;;
68985;SDS011;56035;37.534;-122.308;2023-10-19T04:30:11;4.20;;;2.50;;
68985;SDS011;56035;37.534;-122.308;2023-10-19T04:32:45;5.13;;;2.37;;
68985;SDS011;56035;37.534;-122.308;2023-10-19T04:35:12;4.43;;;2.20;;
68985;SDS011;56035;37.534;-122.308;2023-10-19T04:37:40;5.07;;;1.97;;
68985;SDS011;56035;37.534;-122.308;2023-10-19T04:40:08;4.20;;;2.20;;
68985;SDS011;56035;37.534;-122.308;2023-10-19T04:42:35;9.60;;;2.17;;
68985;SDS011;56035;37.534;-122.308;2023-10-19T04:45:03;3.80;;;1.80;;
68985;SDS011;56035;37.534;-122.308;2023-10-19T04:47:31;4.40;;;2.40;;
68985;SDS011;56035;37.534;-122.308;2023-10-19T04:50:04;5.67;;;1.97;;
68985;SDS011;56035;37.534;-122.308;2023-10-19T04:52:31;5.80;;;2.22;;
68985;SDS011;56035;37.534;-122.308;2023-10-19T04:54:57;4.93;;;2.35;;
68985;SDS011;56035;37.534;-122.308;2023-10-19T04:57:24;5.68;;;1.88;;
68985;SDS011;56035;37.534;-122.308;2023-10-19T04:59:54;6.03;;;2.17;;
68985;SDS011;56035;37.534;-122.308;2023-10-19T05:04:46;5.10;;;2.30;;
68985;SDS011;56035;37.534;-122.308;2023-10-19T05:07:13;4.27;;;2.17;;
68985;SDS011;56035;37.534;-122.308;2023-10-19T05:09:45;4.37;;;2.50;;
68985;SDS011;56035;37.534;-122.308;2023-10-19T05:12:12;5.10;;;2.35;;
68985;SDS011;56035;37.534;-122.308;2023-10-19T05:14:40;5.80;;;2.07;;
68985;SDS011;56035;37.534;-122.308;2023-10-19T05:17:07;5.70;;;2.53;;
68985;SDS011;56035;37.534;-122.308;2023-10-19T05:19:34;5.18;;;2.35;;
68985;SDS011;56035;37.534;-122.308;2023-10-19T05:22:02;4.90;;;2.20;;
68985;SDS011;56035;37.534;-122.308;2023-10-19T05:24:31;6.37;;;2.47;;
68985;SDS011;56035;37.534;-122.308;2023-10-19T05:26:57;5.45;;;2.55;;
68985;SDS011;56035;37.534;-122.308;2023-10-19T05:31:50;5.07;;;2.40;;
68985;SDS011;56035;37.534;-122.308;2023-10-19T05:34:23;4.93;;;2.20;;
68985;SDS011;56035;37.534;-122.308;2023-10-19T05:36:52;3.67;;;2.27;;
68985;SDS011;56035;37.534;-122.308;2023-10-19T05:39:19;7.07;;;2.20;;
68985;SDS011;56035;37.534;-122.308;2023-10-19T05:41:46;9.57;;;2.60;;
68985;SDS011;56035;37.534;-122.308;2023-10-19T05:44:12;5.65;;;2.38;;
68985;SDS011;56035;37.534;-122.308;2023-10-19T05:46:39;5.55;;;2.25;;
68985;SDS011;56035;37.534;-122.308;2023-10-19T05:49:06;5.43;;;2.43;;
68985;SDS011;56035;37.534;-122.308;2023-10-19T05:51:33;5.25;;;2.30;;
68985;SDS011;56035;37.534;-122.308;2023-10-19T05:53:59;4.60;;;2.03;;
68985;SDS011;56035;37.534;-122.308;2023-10-19T05:56:29;6.87;;;2.60;;
68985;SDS011;56035;37.534;-122.308;2023-10-19T06:01:22;3.80;;;1.93;;
68985;SDS011;56035;37.534;-122.308;2023-10-19T06:03:49;5.30;;;2.10;;
68985;SDS011;56035;37.534;-122.308;2023-10-19T06:06:22;3.60;;;2.10;;
68985;SDS011;56035;37.534;-122.308;2023-10-19T06:08:48;4.27;;;2.47;;
68985;SDS011;56035;37.534;-122.308;2023-10-19T06:11:19;4.80;;;2.13;;
68985;SDS011;56035;37.534;-122.308;2023-10-19T06:13:46;3.43;;;1.90;;
68985;SDS011;56035;37.534;-122.308;2023-10-19T06:16:13;6.07;;;2.53;;
68985;SDS011;56035;37.534;-122.308;2023-10-19T06:18:40;3.88;;;2.13;;
68985;SDS011;56035;37.534;-122.308;2023-10-19T06:21:08;7.40;;;2.03;;
68985;SDS011;56035;37.534;-122.308;2023-10-19T06:26:08;6.30;;;2.00;;
68985;SDS011;56035;37.534;-122.308;2023-10-19T06:28:37;6.00;;;2.13;;
68985;SDS011;56035;37.534;-122.308;2023-10-19T06:31:05;4.30;;;2.20;;
68985;SDS011;56035;37.534;-122.308;2023-10-19T06:33:31;5.35;;;2.25;;
68985;SDS011;56035;37.534;-122.308;2023-10-19T06:36:01;4.80;;;2.30;;
68985;SDS011;56035;37.534;-122.308;2023-10-19T06:38:31;6.27;;;2.10;;
68985;SDS011;56035;37.534;-122.308;2023-10-19T06:40:58;4.15;;;1.95;;
68985;SDS011;56035;37.534;-122.308;2023-10-19T06:43:28;5.33;;;1.87;;
68985;SDS011;56035;37.534;-122.308;2023-10-19T06:45:55;5.27;;;2.00;;
68985;SDS011;56035;37.534;-122.308;2023-10-19T06:48:22;5.55;;;2.10;;
68985;SDS011;56035;37.534;-122.308;2023-10-19T06:50:48;4.93;;;2.13;;
68985;SDS011;56035;37.534;-122.308;2023-10-19T06:53:15;6.30;;;2.67;;
68985;SDS011;56035;37.534;-122.308;2023-10-19T06:55:41;4.72;;;2.45;;
68985;SDS011;56035;37.534;-122.308;2023-10-19T07:00:34;5.13;;;2.10;;
68985;SDS011;56035;37.534;-122.308;2023-10-19T07:03:07;4.93;;;2.17;;
68985;SDS011;56035;37.534;-122.308;2023-10-19T07:05:34;5.78;;;2.10;;
68985;SDS011;56035;37.534;-122.308;2023-10-19T07:10:28;5.53;;;2.53;;
68985;SDS011;56035;37.534;-122.308;2023-10-19T07:12:54;4.15;;;2.05;;
68985;SDS011;56035;37.534;-122.308;2023-10-19T07:15:23;4.33;;;2.43;;
68985;SDS011;56035;37.534;-122.308;2023-10-19T07:17:51;4.17;;;2.30;;
68985;SDS011;56035;37.534;-122.308;2023-10-19T07:20:19;4.53;;;2.30;;
68985;SDS011;56035;37.534;-122.308;2023-10-19T07:22:59;6.43;;;2.30;;
68985;SDS011;56035;37.534;-122.308;2023-10-19T07:25:33;2.93;;;1.80;;
68985;SDS011;56035;37.534;-122.308;2023-10-19T07:28:17;4.07;;;2.23;;
68985;SDS011;56035;37.534;-122.308;2023-10-19T07:30:45;7.00;;;2.17;;
68985;SDS011;56035;37.534;-122.308;2023-10-19T07:33:11;6.97;;;2.20;;
68985;SDS011;56035;37.534;-122.308;2023-10-19T07:35:45;5.80;;;2.43;;
68985;SDS011;56035;37.534;-122.308;2023-10-19T07:38:12;5.57;;;2.43;;
68985;SDS011;56035;37.534;-122.308;2023-10-19T07:40:40;4.00;;;2.23;;
68985;SDS011;56035;37.534;-122.308;2023-10-19T07:43:06;5.22;;;2.22;;
68985;SDS011;56035;37.534;-122.308;2023-10-19T07:47:59;5.43;;;2.57;;
68985;SDS011;56035;37.534;-122.308;2023-10-19T07:50:32;5.53;;;2.33;;
68985;SDS011;56035;37.534;-122.308;2023-10-19T07:52:59;3.50;;;2.07;;
68985;SDS011;56035;37.534;-122.308;2023-10-19T07:55:26;5.80;;;2.20;;
68985;SDS011;56035;37.534;-122.308;2023-10-19T07:57:53;5.57;;;2.75;;
68985;SDS011;56035;37.534;-122.308;2023-10-19T08:00:20;7.50;;;2.65;;
68985;SDS011;56035;37.534;-122.308;2023-10-19T08:02:46;5.73;;;2.53;;
68985;SDS011;56035;37.534;-122.308;2023-10-19T08:05:13;7.13;;;2.10;;
68985;SDS011;56035;37.534;-122.308;2023-10-19T08:07:41;8.57;;;2.40;;
68985;SDS011;56035;37.534;-122.308;2023-10-19T08:10:08;7.37;;;2.50;;
68985;SDS011;56035;37.534;-122.308;2023-10-19T08:12:39;5.67;;;2.63;;
68985;SDS011;56035;37.534;-122.308;2023-10-19T08:15:10;5.17;;;2.43;;
68985;SDS011;56035;37.534;-122.308;2023-10-19T08:17:38;5.03;;;2.10;;
68985;SDS011;56035;37.534;-122.308;2023-10-19T08:20:06;4.97;;;2.40;;
68985;SDS011;56035;37.534;-122.308;2023-10-19T08:22:41;6.70;;;2.57;;
68985;SDS011;56035;37.534;-122.308;2023-10-19T08:25:12;5.10;;;2.33;;
68985;SDS011;56035;37.534;-122.308;2023-10-19T08:27:40;5.17;;;2.20;;
68985;SDS011;56035;37.534;-122.308;2023-10-19T08:30:10;6.67;;;2.70;;
68985;SDS011;56035;37.534;-122.308;2023-10-19T08:32:39;4.80;;;2.43;;
68985;SDS011;56035;37.534;-122.308;2023-10-19T08:35:08;6.43;;;2.33;;
68985;SDS011;56035;37.534;-122.308;2023-10-19T08:37:38;8.13;;;2.67;;
68985;SDS011;56035;37.534;-122.308;2023-10-19T08:40:06;5.65;;;2.38;;
68985;SDS011;56035;37.534;-122.308;2023-10-19T08:42:33;4.17;;;2.27;;
68985;SDS011;56035;37.534;-122.308;2023-10-19T08:45:00;5.27;;;2.37;;
68985;SDS011;56035;37.534;-122.308;2023-10-19T08:47:28;5.00;;;2.17;;
68985;SDS011;56035;37.534;-122.308;2023-10-19T08:49:56;5.67;;;2.17;;
68985;SDS011;56035;37.534;-122.308;2023-10-19T08:52:24;5.57;;;2.30;;
68985;SDS011;56035;37.534;-122.308;2023-10-19T09:01:36;5.83;;;2.50;;
68985;SDS011;56035;37.534;-122.308;2023-10-19T09:04:03;5.93;;;2.43;;
68985;SDS011;56035;37.534;-122.308;2023-10-19T09:06:39;5.40;;;2.40;;
68985;SDS011;56035;37.534;-122.308;2023-10-19T09:09:10;4.77;;;2.30;;
68985;SDS011;56035;37.534;-122.308;2023-10-19T09:11:46;4.13;;;2.40;;
68985;SDS011;56035;37.534;-122.308;2023-10-19T09:14:31;6.17;;;2.53;;
68985;SDS011;56035;37.534;-122.308;2023-10-19T09:16:59;5.80;;;2.30;;
68985;SDS011;56035;37.534;-122.308;2023-10-19T09:22:01;4.40;;;2.33;;
68985;SDS011;56035;37.534;-122.308;2023-10-19T09:24:49;4.63;;;2.50;;
68985;SDS011;56035;37.534;-122.308;2023-10-19T09:27:16;6.10;;;2.50;;
68985;SDS011;56035;37.534;-122.308;2023-10-19T09:29:43;4.60;;;2.40;;
68985;SDS011;56035;37.534;-122.308;2023-10-19T09:34:39;6.33;;;2.40;;
68985;SDS011;56035;37.534;-122.308;2023-10-19T09:37:09;6.23;;;2.90;;
68985;SDS011;56035;37.534;-122.308;2023-10-19T09:39:36;6.87;;;2.77;;
68985;SDS011;56035;37.534;-122.308;2023-10-19T09:44:43;8.47;;;2.47;;
68985;SDS011;56035;37.534;-122.308;2023-10-19T09:47:14;4.23;;;2.20;;
68985;SDS011;56035;37.534;-122.308;2023-10-19T09:49:44;5.03;;;2.50;;
68985;SDS011;56035;37.534;-122.308;2023-10-19T09:52:11;6.10;;;2.72;;
68985;SDS011;56035;37.534;-122.308;2023-10-19T09:57:14;7.10;;;2.80;;
68985;SDS011;56035;37.534;-122.308;2023-10-19T09:59:45;5.30;;;2.70;;
68985;SDS011;56035;37.534;-122.308;2023-10-19T10:02:16;6.27;;;2.33;;
68985;SDS011;56035;37.534;-122.308;2023-10-19T10:04:47;5.27;;;2.47;;
68985;SDS011;56035;37.534;-122.308;2023-10-19T10:09:43;4.20;;;2.13;;
68985;SDS011;56035;37.534;-122.308;2023-10-19T10:12:17;5.43;;;2.70;;
68985;SDS011;56035;37.534;-122.308;2023-10-19T10:15:00;6.40;;;2.47;;
68985;SDS011;56035;37.534;-122.308;2023-10-19T10:17:32;8.97;;;2.43;;
68985;SDS011;56035;37.534;-122.308;2023-10-19T10:22:39;4.33;;;2.37;;
68985;SDS011;56035;37.534;-122.308;2023-10-19T10:25:06;7.53;;;2.37;;
68985;SDS011;56035;37.534;-122.308;2023-10-19T10:27:36;5.77;;;2.83;;
68985;SDS011;56035;37.534;-122.308;2023-10-19T10:30:14;5.33;;;2.60;;
68985;SDS011;56035;37.534;-122.308;2023-10-19T10:32:44;6.03;;;2.30;;
68985;SDS011;56035;37.534;-122.308;2023-10-19T10:38:04;6.70;;;2.53;;
68985;SDS011;56035;37.534;-122.308;2023-10-19T10:40:44;6.10;;;3.00;;
68985;SDS011;56035;37.534;-122.308;2023-10-19T10:43:12;5.60;;;2.40;;
68985;SDS011;56035;37.534;-122.308;2023-10-19T10:45:39;4.78;;;2.50;;
68985;SDS011;56035;37.534;-122.308;2023-10-19T10:50:47;5.13;;;2.53;;
68985;SDS011;56035;37.534;-122.308;2023-10-19T10:53:14;7.33;;;2.20;;
68985;SDS011;56035;37.534;-122.308;2023-10-19T10:55:41;4.72;;;2.35;;
68985;SDS011;56035;37.534;-122.308;2023-10-19T10:58:08;7.75;;;2.72;;
68985;SDS011;56035;37.534;-122.308;2023-10-19T11:03:07;6.83;;;3.13;;
68985;SDS011;56035;37.534;-122.308;2023-10-19T11:05:35;5.20;;;2.90;;
68985;SDS011;56035;37.534;-122.308;2023-10-19T11:08:07;8.23;;;2.90;;
68985;SDS011;56035;37.534;-122.308;2023-10-19T11:10:42;9.27;;;2.77;;
68985;SDS011;56035;37.534;-122.308;2023-10-19T11:13:11;6.07;;;2.57;;
68985;SDS011;56035;37.534;-122.308;2023-10-19T11:15:39;7.33;;;2.80;;
68985;SDS011;56035;37.534;-122.308;2023-10-19T11:18:27;5.40;;;2.70;;
68985;SDS011;56035;37.534;-122.308;2023-10-19T11:20:54;8.40;;;3.20;;
68985;SDS011;56035;37.534;-122.308;2023-10-19T11:23:43;5.30;;;2.73;;
68985;SDS011;56035;37.534;-122.308;2023-10-19T11:26:19;7.13;;;2.90;;
68985;SDS011;56035;37.534;-122.308;2023-10-19T11:28:46;8.00;;;2.87;;
68985;SDS011;56035;37.534;-122.308;2023-10-19T11:31:22;5.30;;;2.53;;
68985;SDS011;56035;37.534;-122.308;2023-10-19T11:33:50;7.77;;;3.10;;
68985;SDS011;56035;37.534;-122.308;2023-10-19T11:36:18;6.73;;;2.67;;
68985;SDS011;56035;37.534;-122.308;2023-10-19T11:38:46;8.33;;;2.80;;
68985;SDS011;56035;37.534;-122.308;2023-10-19T11:41:14;5.07;;;2.70;;
68985;SDS011;56035;37.534;-122.308;2023-10-19T11:43:43;8.00;;;2.70;;
68985;SDS011;56035;37.534;-122.308;2023-10-19T11:46:10;8.00;;;2.70;;
68985;SDS011;56035;37.534;-122.308;2023-10-19T11:48:37;7.13;;;2.88;;
68985;SDS011;56035;37.534;-122.308;2023-10-19T11:51:05;6.27;;;2.77;;
68985;SDS011;56035;37.534;-122.308;2023-10-19T11:53:32;6.27;;;2.80;;
68985;SDS011;56035;37.534;-122.308;2023-10-19T11:56:04;7.10;;;2.70;;
68985;SDS011;56035;37.534;-122.308;2023-10-19T11:58:35;5.73;;;3.40;;
68985;SDS011;56035;37.534;-122.308;2023-10-19T12:01:02;5.80;;;3.23;;
68985;SDS011;56035;37.534;-122.308;2023-10-19T12:03:42;9.13;;;3.30;;
68985;SDS011;56035;37.534;-122.308;2023-10-19T12:06:11;5.80;;;2.90;;
68985;SDS011;56035;37.534;-122.308;2023-10-19T12:08:38;7.53;;;2.83;;
68985;SDS011;56035;37.534;-122.308;2023-10-19T12:11:05;3.70;;;2.55;;
68985;SDS011;56035;37.534;-122.308;2023-10-19T12:13:44;9.93;;;3.43;;
68985;SDS011;56035;37.534;-122.308;2023-10-19T12:18:43;10.43;;;3.30;;
68985;SDS011;56035;37.534;-122.308;2023-10-19T12:21:10;8.43;;;3.40;;
68985;SDS011;56035;37.534;-122.308;2023-10-19T12:23:40;6.33;;;2.60;;
68985;SDS011;56035;37.534;-122.308;2023-10-19T12:26:08;7.37;;;3.10;;
68985;SDS011;56035;37.534;-122.308;2023-10-19T12:28:38;6.90;;;3.23;;
68985;SDS011;56035;37.534;-122.308;2023-10-19T12:31:06;10.30;;;3.50;;
68985;SDS011;56035;37.534;-122.308;2023-10-19T12:33:36;8.03;;;3.07;;
68985;SDS011;56035;37.534;-122.308;2023-10-19T12:36:23;8.47;;;3.30;;
68985;SDS011;56035;37.534;-122.308;2023-10-19T12:38:56;4.97;;;2.80;;
68985;SDS011;56035;37.534;-122.308;2023-10-19T12:41:23;6.55;;;3.40;;
68985;SDS011;56035;37.534;-122.308;2023-10-19T12:46:23;5.67;;;2.90;;
68985;SDS011;56035;37.534;-122.308;2023-10-19T12:48:51;8.00;;;3.20;;
68985;SDS011;56035;37.534;-122.308;2023-10-19T12:51:17;6.43;;;3.23;;
68985;SDS011;56035;37.534;-122.308;2023-10-19T12:53:49;7.47;;;3.40;;
68985;SDS011;56035;37.534;-122.308;2023-10-19T12:56:19;9.17;;;3.17;;
68985;SDS011;56035;37.534;-122.308;2023-10-19T12:58:46;7.83;;;3.50;;
68985;SDS011;56035;37.534;-122.308;2023-10-19T13:01:16;6.70;;;3.43;;
68985;SDS011;56035;37.534;-122.308;2023-10-19T13:03:47;7.53;;;3.63;;
68985;SDS011;56035;37.534;-122.308;2023-10-19T13:06:16;8.30;;;3.60;;
68985;SDS011;56035;37.534;-122.308;2023-10-19T13:08:44;6.70;;;3.40;;
68985;SDS011;56035;37.534;-122.308;2023-10-19T13:11:11;8.77;;;3.13;;
68985;SDS011;56035;37.534;-122.308;2023-10-19T13:13:40;10.03;;;4.00;;
68985;SDS011;56035;37.534;-122.308;2023-10-19T13:16:07;10.65;;;3.95;;
68985;SDS011;56035;37.534;-122.308;2023-10-19T13:18:36;7.63;;;3.43;;
68985;SDS011;56035;37.534;-122.308;2023-10-19T13:21:05;13.17;;;4.13;;
68985;SDS011;56035;37.534;-122.308;2023-10-19T13:23:34;11.03;;;3.60;;
68985;SDS011;56035;37.534;-122.308;2023-10-19T13:26:04;7.40;;;3.57;;
68985;SDS011;56035;37.534;-122.308;2023-10-19T13:28:33;10.93;;;3.83;;
68985;SDS011;56035;37.534;-122.308;2023-10-19T13:31:03;7.50;;;3.90;;
68985;SDS011;56035;37.534;-122.308;2023-10-19T13:33:29;9.65;;;3.58;;
68985;SDS011;56035;37.534;-122.308;2023-10-19T13:35:57;7.73;;;3.43;;
68985;SDS011;56035;37.534;-122.308;2023-10-19T13:38:23;7.55;;;3.42;;
68985;SDS011;56035;37.534;-122.308;2023-10-19T13:40:50;6.45;;;3.30;;
68985;SDS011;56035;37.534;-122.308;2023-10-19T13:43:17;9.30;;;3.67;;
68985;SDS011;56035;37.534;-122.308;2023-10-19T13:45:44;8.57;;;3.47;;
68985;SDS011;56035;37.534;-122.308;2023-10-19T13:48:13;7.27;;;3.50;;
68985;SDS011;56035;37.534;-122.308;2023-10-19T13:50:49;8.83;;;3.70;;
68985;SDS011;56035;37.534;-122.308;2023-10-19T13:53:18;9.00;;;3.70;;
68985;SDS011;56035;37.534;-122.308;2023-10-19T13:55:45;10.32;;;3.67;;
68985;SDS011;56035;37.534;-122.308;2023-10-19T14:00:47;7.83;;;3.60;;
68985;SDS011;56035;37.534;-122.308;2023-10-19T14:03:14;10.07;;;3.80;;
68985;SDS011;56035;37.534;-122.308;2023-10-19T14:05:41;7.95;;;3.53;;
68985;SDS011;56035;37.534;-122.308;2023-10-19T14:08:13;7.33;;;4.10;;
68985;SDS011;56035;37.534;-122.308;2023-10-19T14:10:40;7.33;;;3.40;;
68985;SDS011;56035;37.534;-122.308;2023-10-19T14:13:07;8.43;;;3.90;;
68985;SDS011;56035;37.534;-122.308;2023-10-19T14:15:34;7.47;;;4.03;;
68985;SDS011;56035;37.534;-122.308;2023-10-19T14:18:02;10.20;;;3.77;;
68985;SDS011;56035;37.534;-122.308;2023-10-19T14:20:29;7.68;;;3.97;;
68985;SDS011;56035;37.534;-122.308;2023-10-19T14:22:59;10.90;;;3.57;;
68985;SDS011;56035;37.534;-122.308;2023-10-19T14:25:27;7.97;;;3.27;;
68985;SDS011;56035;37.534;-122.308;2023-10-19T14:27:54;10.00;;;3.78;;
68985;SDS011;56035;37.534;-122.308;2023-10-19T14:30:25;8.37;;;4.00;;
68985;SDS011;56035;37.534;-122.308;2023-10-19T14:32:53;7.50;;;3.43;;
68985;SDS011;56035;37.534;-122.308;2023-10-19T14:35:21;6.77;;;3.20;;
68985;SDS011;56035;37.534;-122.308;2023-10-19T14:37:49;10.27;;;3.87;;
68985;SDS011;56035;37.534;-122.308;2023-10-19T14:40:18;11.07;;;4.50;;
68985;SDS011;56035;37.534;-122.308;2023-10-19T14:42:46;10.53;;;3.70;;
68985;SDS011;56035;37.534;-122.308;2023-10-19T14:45:14;11.17;;;3.90;;
68985;SDS011;56035;37.534;-122.308;2023-10-19T14:47:44;7.93;;;3.80;;
68985;SDS011;56035;37.534;-122.308;2023-10-19T14:50:14;8.50;;;4.03;;
68985;SDS011;56035;37.534;-122.308;2023-10-19T14:52:43;11.63;;;4.07;;
68985;SDS011;56035;37.534;-122.308;2023-10-19T14:55:12;9.97;;;3.60;;
68985;SDS011;56035;37.534;-122.308;2023-10-19T14:57:41;9.83;;;4.23;;
68985;SDS011;56035;37.534;-122.308;2023-10-19T15:00:10;10.63;;;4.00;;
68985;SDS011;56035;37.534;-122.308;2023-10-19T15:03:01;8.87;;;3.90;;
68985;SDS011;56035;37.534;-122.308;2023-10-19T15:05:39;8.23;;;3.83;;
68985;SDS011;56035;37.534;-122.308;2023-10-19T15:08:07;10.63;;;4.40;;
68985;SDS011;56035;37.534;-122.308;2023-10-19T15:10:35;7.37;;;3.97;;
68985;SDS011;56035;37.534;-122.308;2023-10-19T15:13:05;11.87;;;4.37;;
68985;SDS011;56035;37.534;-122.308;2023-10-19T15:15:31;10.73;;;3.85;;
68985;SDS011;56035;37.534;-122.308;2023-10-19T15:17:58;9.55;;;4.60;;
68985;SDS011;56035;37.534;-122.308;2023-10-19T15:20:25;10.82;;;3.90;;
68985;SDS011;56035;37.534;-122.308;2023-10-19T15:22:53;7.93;;;3.80;;
68985;SDS011;56035;37.534;-122.308;2023-10-19T15:25:19;7.22;;;3.53;;
68985;SDS011;56035;37.534;-122.308;2023-10-19T15:27:46;8.67;;;3.30;;
68985;SDS011;56035;37.534;-122.308;2023-10-19T15:30:18;11.30;;;4.00;;